EGGDLOWI

Guest
Details From EGGD - Bristol Lulsgate
To LOWI - Innsbruck Kranebitten
Flight Number -
Tags Generated
Created
Modified
Stats Distance 602 nm / 1,116 km
Max Altitude 0 ft / 0 m
Waypoints 4
Social Downloads 4
Likes 0
Share VATSIM

Download

Looking for another format? Having issues loading an existing format? Contact us
Advertisement - Login to hide

Notes

Generated

Route

EGGD SOMTU LEMSO LOWI

ID Type Via Altitude Latitude Longitude Leg Dist Tot Dist Heading (true) Name
O EGGD APT - 0 ft / 0 m 51.38211˚ -2.73350˚ - 0 nm - -
SOMTU FIX - 0 ft / 0 m 49.59639˚ 4.35750˚ 291 nm 291 nm 109° / 114° -
LEMSO FIX - 0 ft / 0 m 47.42694˚ 10.86111˚ 289 nm 580 nm 114° / 119° -
O LOWI APT - 0 ft / 0 m 47.25883˚ 11.33091˚ 21 nm 602 nm 118° / 118° -

Altitude Profile

Advertisement - Login to hide

Weather


0- 5 10 15 20 25 30 35+ Temperature / ° C

Clouds and Precipitation
Forecast for 2018-05-28 00:00 UTC. Updated 10 hours ago

Ground ~20,000 ft ~40,000 ft Winds

EGGD

Details ICAO EGGD (BRS)
Name Bristol International
Region United Kingdom
Timezone Europe/London (UTC+1.0)
Stats Elevation 622 ft / 190 m (AMSL)
Location 51.382658° -2.718918°
Runways 1
Magnetic Variation 1.282° W

METAR

Not found

TAF

TAF EGGD 272306Z 2800/2824 VRB04KT 9999 FEW040 BECMG 2802/2805 5000 BR BKN003 PROB40 2803/2809 0300 FG BKN000 BECMG 2809/2811 9999 NSW SCT030 PROB30 TEMPO 2812/2820 3000 +SHRA TSGR BKN012 BKN040CB

Decode

Departure Runways

ID Width Length Bearing (true) Bearing (mag) Surface Threshold Offset Overrun Length
09 148 ft / 45 m 6,655 ft / 2,029 m 86.42° 87.70° Asphalt 0 ft / 0 m 0 ft / 0 m
27 148 ft / 45 m 6,655 ft / 2,029 m 266.44° 267.72° Asphalt 499 ft / 152 m 0 ft / 0 m

LOWI

Details ICAO LOWI (INN)
Name Innsbruck Kranebitten
Region Austria
Timezone Europe/Vienna (UTC+2.0)
Stats Elevation 1,906 ft / 581 m (AMSL)
Location 47.260226° 11.343967°
Runways 1
Magnetic Variation 3.073° E

METAR

Not found

TAF

TAF LOWI 272315Z 2800/2824 27004KT CAVOK TX27/2813Z TN14/2804Z BECMG 2805/2807 27008KT BECMG 2809/2811 10010KT 9999 FEW070 SCT150 BKN300 TEMPO 2812/2818 12015G25KT SCT070 FEW070CB PROB30 TEMPO 2813/2818 -TSRA SCT070CB BKN070 BECMG 2819/2821 27005KT CAVOK

Decode

Destination Runways

ID Width Length Bearing (true) Bearing (mag) Surface Threshold Offset Overrun Length
08 148 ft / 45 m 6,545 ft / 1,995 m 81.02° 77.95° Asphalt 338 ft / 103 m 0 ft / 0 m
26 148 ft / 45 m 6,545 ft / 1,995 m 261.04° 257.97° Asphalt 0 ft / 0 m 0 ft / 0 m

Approach Navaids

Runway Type Ident Frequency Range Bearing (true) Bearing (mag) Slope Elevation
26 Localiser OEV 111.10 MHz 27 nm / 50 km 256.00° 252.93° - 1,906 ft / 581 m (AMSL)
26 Localiser OEJ 109.70 MHz 30 nm / 56 km 69.00° 65.93° - 1,906 ft / 581 m (AMSL)
26 Glidescope OEV 111.10 MHz 18 nm / 33 km 256.00° 252.93° 3.80° 1,911 ft / 582 m (AMSL)
26 DME OEJ 109.70 MHz 30 nm / 56 km - - - 1,906 ft / 581 m (AMSL)
26 DME OEV 111.10 MHz 27 nm / 50 km - - - 1,911 ft / 582 m (AMSL)

Popular Alternatives